sensor_id;sensor_type;location;lat;lon;timestamp;temperature;humidity
23160;DHT22;11748;50.844;4.396;2024-03-23T00:53:45;9.70;99.90
23160;DHT22;11748;50.844;4.396;2024-03-23T00:56:10;9.80;99.90
23160;DHT22;11748;50.844;4.396;2024-03-23T00:58:36;9.60;99.90
23160;DHT22;11748;50.844;4.396;2024-03-23T01:01:02;9.60;99.90
23160;DHT22;11748;50.844;4.396;2024-03-23T01:03:29;9.50;99.90
23160;DHT22;11748;50.844;4.396;2024-03-23T01:06:02;9.40;99.90
23160;DHT22;11748;50.844;4.396;2024-03-23T01:08:29;9.40;99.90
23160;DHT22;11748;50.844;4.396;2024-03-23T01:11:03;9.60;99.90
23160;DHT22;11748;50.844;4.396;2024-03-23T01:13:29;9.50;99.90
23160;DHT22;11748;50.844;4.396;2024-03-23T01:15:56;9.70;99.90
23160;DHT22;11748;50.844;4.396;2024-03-23T01:18:22;9.80;99.90
23160;DHT22;11748;50.844;4.396;2024-03-23T01:20:49;9.80;99.90
23160;DHT22;11748;50.844;4.396;2024-03-23T01:23:14;9.80;99.90
23160;DHT22;11748;50.844;4.396;2024-03-23T01:25:40;9.90;99.90
23160;DHT22;11748;50.844;4.396;2024-03-23T01:28:06;9.90;99.90
23160;DHT22;11748;50.844;4.396;2024-03-23T01:30:34;9.90;99.90
23160;DHT22;11748;50.844;4.396;2024-03-23T01:33:02;9.70;99.90
23160;DHT22;11748;50.844;4.396;2024-03-23T01:35:28;9.70;99.90
23160;DHT22;11748;50.844;4.396;2024-03-23T01:37:54;9.70;99.90
23160;DHT22;11748;50.844;4.396;2024-03-23T01:40:20;9.70;99.90
23160;DHT22;11748;50.844;4.396;2024-03-23T01:43:01;9.80;99.90
23160;DHT22;11748;50.844;4.396;2024-03-23T01:45:29;9.90;99.90
23160;DHT22;11748;50.844;4.396;2024-03-23T01:47:55;9.90;99.90
23160;DHT22;11748;50.844;4.396;2024-03-23T01:50:21;9.90;99.90
23160;DHT22;11748;50.844;4.396;2024-03-23T01:52:48;9.70;99.90
23160;DHT22;11748;50.844;4.396;2024-03-23T01:55:14;9.70;99.90
23160;DHT22;11748;50.844;4.396;2024-03-23T01:57:40;9.60;99.90
23160;DHT22;11748;50.844;4.396;2024-03-23T02:00:06;9.40;99.90
23160;DHT22;11748;50.844;4.396;2024-03-23T02:02:32;9.40;99.90
23160;DHT22;11748;50.844;4.396;2024-03-23T02:04:58;9.40;99.90
23160;DHT22;11748;50.844;4.396;2024-03-23T02:07:24;9.50;99.90
23160;DHT22;11748;50.844;4.396;2024-03-23T02:09:51;9.70;99.90
23160;DHT22;11748;50.844;4.396;2024-03-23T02:12:17;9.40;99.90
23160;DHT22;11748;50.844;4.396;2024-03-23T02:14:43;9.20;99.90
23160;DHT22;11748;50.844;4.396;2024-03-23T02:17:09;9.10;99.90
23160;DHT22;11748;50.844;4.396;2024-03-23T02:19:35;9.10;99.90
23160;DHT22;11748;50.844;4.396;2024-03-23T02:22:01;9.00;99.90
23160;DHT22;11748;50.844;4.396;2024-03-23T02:24:29;9.00;99.90
23160;DHT22;11748;50.844;4.396;2024-03-23T02:26:55;9.30;99.90
23160;DHT22;11748;50.844;4.396;2024-03-23T02:29:20;9.40;99.90
23160;DHT22;11748;50.844;4.396;2024-03-23T02:31:46;9.40;99.90
23160;DHT22;11748;50.844;4.396;2024-03-23T02:34:12;9.20;99.90
23160;DHT22;11748;50.844;4.396;2024-03-23T02:36:38;9.20;99.90
23160;DHT22;11748;50.844;4.396;2024-03-23T02:39:04;9.40;99.90
23160;DHT22;11748;50.844;4.396;2024-03-23T02:41:30;9.50;99.90
23160;DHT22;11748;50.844;4.396;2024-03-23T02:43:56;9.30;99.90
23160;DHT22;11748;50.844;4.396;2024-03-23T02:46:22;9.30;99.90
23160;DHT22;11748;50.844;4.396;2024-03-23T02:48:50;9.10;99.90
23160;DHT22;11748;50.844;4.396;2024-03-23T02:51:16;9.20;99.90
23160;DHT22;11748;50.844;4.396;2024-03-23T02:53:41;9.20;99.90
23160;DHT22;11748;50.844;4.396;2024-03-23T02:56:07;9.20;99.90
23160;DHT22;11748;50.844;4.396;2024-03-23T02:58:33;9.20;99.90
23160;DHT22;11748;50.844;4.396;2024-03-23T03:00:59;9.20;99.90
23160;DHT22;11748;50.844;4.396;2024-03-23T03:03:25;9.20;99.90
23160;DHT22;11748;50.844;4.396;2024-03-23T03:05:56;9.00;99.90
23160;DHT22;11748;50.844;4.396;2024-03-23T03:08:22;9.00;99.90
23160;DHT22;11748;50.844;4.396;2024-03-23T03:10:49;9.10;99.90
23160;DHT22;11748;50.844;4.396;2024-03-23T03:13:15;9.10;99.90
23160;DHT22;11748;50.844;4.396;2024-03-23T03:15:45;9.20;99.90
23160;DHT22;11748;50.844;4.396;2024-03-23T03:18:10;9.00;99.90
23160;DHT22;11748;50.844;4.396;2024-03-23T03:20:39;8.90;99.90
23160;DHT22;11748;50.844;4.396;2024-03-23T03:23:06;8.90;99.90
23160;DHT22;11748;50.844;4.396;2024-03-23T03:25:32;8.90;99.90
23160;DHT22;11748;50.844;4.396;2024-03-23T03:27:58;9.00;99.90
23160;DHT22;11748;50.844;4.396;2024-03-23T03:30:24;9.10;99.90
23160;DHT22;11748;50.844;4.396;2024-03-23T03:32:54;9.20;99.90
23160;DHT22;11748;50.844;4.396;2024-03-23T03:35:20;9.20;99.90
23160;DHT22;11748;50.844;4.396;2024-03-23T03:37:46;9.20;99.90
23160;DHT22;11748;50.844;4.396;2024-03-23T03:40:12;9.30;99.90
23160;DHT22;11748;50.844;4.396;2024-03-23T03:42:41;9.20;99.90
23160;DHT22;11748;50.844;4.396;2024-03-23T03:45:07;9.20;99.90
23160;DHT22;11748;50.844;4.396;2024-03-23T03:47:33;9.40;99.90
23160;DHT22;11748;50.844;4.396;2024-03-23T03:49:59;9.10;99.90
23160;DHT22;11748;50.844;4.396;2024-03-23T03:52:24;8.90;99.90
23160;DHT22;11748;50.844;4.396;2024-03-23T03:54:50;8.80;99.90
23160;DHT22;11748;50.844;4.396;2024-03-23T03:57:16;8.80;99.90
23160;DHT22;11748;50.844;4.396;2024-03-23T03:59:42;8.70;99.90
23160;DHT22;11748;50.844;4.396;2024-03-23T04:02:08;8.80;99.90
23160;DHT22;11748;50.844;4.396;2024-03-23T04:04:33;8.80;99.90
23160;DHT22;11748;50.844;4.396;2024-03-23T04:07:02;9.00;99.90
23160;DHT22;11748;50.844;4.396;2024-03-23T04:09:28;9.00;99.90
23160;DHT22;11748;50.844;4.396;2024-03-23T04:11:54;9.10;99.90
23160;DHT22;11748;50.844;4.396;2024-03-23T04:14:19;9.10;99.90
23160;DHT22;11748;50.844;4.396;2024-03-23T04:16:45;9.00;99.90
23160;DHT22;11748;50.844;4.396;2024-03-23T04:19:11;9.00;99.90
23160;DHT22;11748;50.844;4.396;2024-03-23T04:21:40;8.90;99.90
23160;DHT22;11748;50.844;4.396;2024-03-23T04:24:06;9.00;99.90
23160;DHT22;11748;50.844;4.396;2024-03-23T04:26:43;9.00;99.90
23160;DHT22;11748;50.844;4.396;2024-03-23T04:29:08;9.10;99.90
23160;DHT22;11748;50.844;4.396;2024-03-23T04:31:34;9.00;99.90
23160;DHT22;11748;50.844;4.396;2024-03-23T04:34:01;9.00;99.90
23160;DHT22;11748;50.844;4.396;2024-03-23T04:36:27;9.00;99.90
23160;DHT22;11748;50.844;4.396;2024-03-23T04:38:52;9.10;99.90
23160;DHT22;11748;50.844;4.396;2024-03-23T04:41:18;8.90;99.90
23160;DHT22;11748;50.844;4.396;2024-03-23T04:43:44;8.70;99.90
23160;DHT22;11748;50.844;4.396;2024-03-23T04:46:09;8.80;99.90
23160;DHT22;11748;50.844;4.396;2024-03-23T04:48:35;8.80;99.90
23160;DHT22;11748;50.844;4.396;2024-03-23T04:51:01;8.90;99.90
23160;DHT22;11748;50.844;4.396;2024-03-23T04:53:27;9.10;99.90
23160;DHT22;11748;50.844;4.396;2024-03-23T04:55:56;9.10;99.90
23160;DHT22;11748;50.844;4.396;2024-03-23T04:58:25;8.80;99.90
23160;DHT22;11748;50.844;4.396;2024-03-23T05:00:55;8.80;99.90
23160;DHT22;11748;50.844;4.396;2024-03-23T05:03:20;8.70;99.90
23160;DHT22;11748;50.844;4.396;2024-03-23T05:05:49;8.80;99.90
23160;DHT22;11748;50.844;4.396;2024-03-23T05:08:16;8.70;99.90
23160;DHT22;11748;50.844;4.396;2024-03-23T05:10:42;8.70;99.90
23160;DHT22;11748;50.844;4.396;2024-03-23T05:13:08;8.80;99.90
23160;DHT22;11748;50.844;4.396;2024-03-23T05:15:34;8.80;99.90
23160;DHT22;11748;50.844;4.396;2024-03-23T05:18:00;8.80;99.90
23160;DHT22;11748;50.844;4.396;2024-03-23T05:20:26;8.80;99.90
23160;DHT22;11748;50.844;4.396;2024-03-23T05:22:52;8.70;99.90
23160;DHT22;11748;50.844;4.396;2024-03-23T05:25:18;8.60;99.90
23160;DHT22;11748;50.844;4.396;2024-03-23T05:27:44;8.50;99.90
23160;DHT22;11748;50.844;4.396;2024-03-23T05:30:10;8.40;99.90
23160;DHT22;11748;50.844;4.396;2024-03-23T05:32:36;8.40;99.90
23160;DHT22;11748;50.844;4.396;2024-03-23T05:35:02;8.60;99.90
23160;DHT22;11748;50.844;4.396;2024-03-23T05:37:28;8.60;99.90
23160;DHT22;11748;50.844;4.396;2024-03-23T05:39:53;8.70;99.90
23160;DHT22;11748;50.844;4.396;2024-03-23T05:42:19;8.70;99.90
23160;DHT22;11748;50.844;4.396;2024-03-23T05:44:45;8.70;99.90
23160;DHT22;11748;50.844;4.396;2024-03-23T05:47:11;8.80;99.90
23160;DHT22;11748;50.844;4.396;2024-03-23T05:49:40;8.80;99.90
23160;DHT22;11748;50.844;4.396;2024-03-23T05:52:08;8.70;99.90
23160;DHT22;11748;50.844;4.396;2024-03-23T05:54:34;8.70;99.90
23160;DHT22;11748;50.844;4.396;2024-03-23T05:57:00;8.70;99.90
23160;DHT22;11748;50.844;4.396;2024-03-23T05:59:25;8.70;99.90
23160;DHT22;11748;50.844;4.396;2024-03-23T06:01:52;8.60;99.90
23160;DHT22;11748;50.844;4.396;2024-03-23T06:04:19;8.80;99.90
23160;DHT22;11748;50.844;4.396;2024-03-23T06:06:45;8.60;99.90
23160;DHT22;11748;50.844;4.396;2024-03-23T06:09:11;8.50;99.90
23160;DHT22;11748;50.844;4.396;2024-03-23T06:11:37;8.70;99.90
23160;DHT22;11748;50.844;4.396;2024-03-23T06:14:02;8.80;99.90
23160;DHT22;11748;50.844;4.396;2024-03-23T06:16:29;8.80;99.90
23160;DHT22;11748;50.844;4.396;2024-03-23T06:18:56;8.70;99.90
23160;DHT22;11748;50.844;4.396;2024-03-23T06:21:22;8.80;99.90
23160;DHT22;11748;50.844;4.396;2024-03-23T06:23:51;8.70;99.90
23160;DHT22;11748;50.844;4.396;2024-03-23T06:26:21;8.50;99.90
23160;DHT22;11748;50.844;4.396;2024-03-23T06:28:47;8.50;99.90
23160;DHT22;11748;50.844;4.396;2024-03-23T06:31:13;8.40;99.90
23160;DHT22;11748;50.844;4.396;2024-03-23T06:33:39;8.50;99.90
23160;DHT22;11748;50.844;4.396;2024-03-23T06:36:05;8.50;99.90
23160;DHT22;11748;50.844;4.396;2024-03-23T06:38:32;8.70;99.90
23160;DHT22;11748;50.844;4.396;2024-03-23T06:40:57;8.60;99.90
23160;DHT22;11748;50.844;4.396;2024-03-23T06:43:23;8.50;99.90
23160;DHT22;11748;50.844;4.396;2024-03-23T06:45:53;8.60;99.90
23160;DHT22;11748;50.844;4.396;2024-03-23T06:48:19;8.70;99.90
23160;DHT22;11748;50.844;4.396;2024-03-23T06:50:45;8.40;99.90
23160;DHT22;11748;50.844;4.396;2024-03-23T06:53:12;8.30;99.90
23160;DHT22;11748;50.844;4.396;2024-03-23T06:55:38;8.60;99.90
23160;DHT22;11748;50.844;4.396;2024-03-23T06:58:04;8.70;99.90
23160;DHT22;11748;50.844;4.396;2024-03-23T07:00:34;8.40;99.90
23160;DHT22;11748;50.844;4.396;2024-03-23T07:03:03;8.20;99.90
23160;DHT22;11748;50.844;4.396;2024-03-23T07:05:29;8.30;99.90
23160;DHT22;11748;50.844;4.396;2024-03-23T07:07:55;8.20;99.90
23160;DHT22;11748;50.844;4.396;2024-03-23T07:10:20;8.20;99.90
23160;DHT22;11748;50.844;4.396;2024-03-23T07:12:46;8.40;99.90
23160;DHT22;11748;50.844;4.396;2024-03-23T07:15:11;8.10;99.90
23160;DHT22;11748;50.844;4.396;2024-03-23T07:17:37;7.90;99.90
23160;DHT22;11748;50.844;4.396;2024-03-23T07:20:04;7.90;99.90
23160;DHT22;11748;50.844;4.396;2024-03-23T07:22:30;8.10;99.90
23160;DHT22;11748;50.844;4.396;2024-03-23T07:24:59;7.90;99.90
23160;DHT22;11748;50.844;4.396;2024-03-23T07:27:25;8.00;99.90
23160;DHT22;11748;50.844;4.396;2024-03-23T07:29:51;7.80;99.90
23160;DHT22;11748;50.844;4.396;2024-03-23T07:32:17;7.80;99.90
23160;DHT22;11748;50.844;4.396;2024-03-23T07:34:42;7.90;99.90
23160;DHT22;11748;50.844;4.396;2024-03-23T07:37:10;7.90;99.90
23160;DHT22;11748;50.844;4.396;2024-03-23T07:39:36;8.10;99.90
23160;DHT22;11748;50.844;4.396;2024-03-23T07:42:02;8.20;99.90
23160;DHT22;11748;50.844;4.396;2024-03-23T07:44:28;8.40;99.90
23160;DHT22;11748;50.844;4.396;2024-03-23T07:46:53;8.40;99.90
23160;DHT22;11748;50.844;4.396;2024-03-23T07:49:19;8.20;99.90
23160;DHT22;11748;50.844;4.396;2024-03-23T07:51:45;8.10;99.90
23160;DHT22;11748;50.844;4.396;2024-03-23T07:54:10;8.10;99.90
23160;DHT22;11748;50.844;4.396;2024-03-23T07:56:36;8.40;99.90
23160;DHT22;11748;50.844;4.396;2024-03-23T07:59:02;8.40;99.90
23160;DHT22;11748;50.844;4.396;2024-03-23T08:01:29;8.20;99.90
23160;DHT22;11748;50.844;4.396;2024-03-23T08:03:55;8.10;99.90
23160;DHT22;11748;50.844;4.396;2024-03-23T08:06:21;8.20;99.90
23160;DHT22;11748;50.844;4.396;2024-03-23T08:08:49;8.40;99.90
23160;DHT22;11748;50.844;4.396;2024-03-23T08:11:16;8.60;99.90
23160;DHT22;11748;50.844;4.396;2024-03-23T08:13:44;8.60;99.90
23160;DHT22;11748;50.844;4.396;2024-03-23T08:16:10;8.60;99.90
23160;DHT22;11748;50.844;4.396;2024-03-23T08:18:36;8.60;99.90
23160;DHT22;11748;50.844;4.396;2024-03-23T08:21:03;8.90;99.90
23160;DHT22;11748;50.844;4.396;2024-03-23T08:23:34;9.10;99.90
23160;DHT22;11748;50.844;4.396;2024-03-23T08:26:12;9.10;99.90
23160;DHT22;11748;50.844;4.396;2024-03-23T08:28:38;9.20;99.90
23160;DHT22;11748;50.844;4.396;2024-03-23T08:31:08;9.10;99.90
23160;DHT22;11748;50.844;4.396;2024-03-23T08:33:34;9.00;99.90
23160;DHT22;11748;50.844;4.396;2024-03-23T08:36:02;9.20;99.90
23160;DHT22;11748;50.844;4.396;2024-03-23T08:38:28;9.40;99.90
23160;DHT22;11748;50.844;4.396;2024-03-23T08:40:58;9.60;99.90
23160;DHT22;11748;50.844;4.396;2024-03-23T08:43:24;9.80;99.90
23160;DHT22;11748;50.844;4.396;2024-03-23T08:45:50;10.00;99.90
23160;DHT22;11748;50.844;4.396;2024-03-23T08:48:15;10.00;99.90
23160;DHT22;11748;50.844;4.396;2024-03-23T08:50:41;9.60;99.90
23160;DHT22;11748;50.844;4.396;2024-03-23T08:53:08;9.90;99.90
23160;DHT22;11748;50.844;4.396;2024-03-23T08:55:33;10.00;99.90
23160;DHT22;11748;50.844;4.396;2024-03-23T08:57:59;10.00;99.90
23160;DHT22;11748;50.844;4.396;2024-03-23T09:00:26;10.10;99.90
23160;DHT22;11748;50.844;4.396;2024-03-23T09:02:51;10.10;99.90
23160;DHT22;11748;50.844;4.396;2024-03-23T09:05:18;9.80;99.90
23160;DHT22;11748;50.844;4.396;2024-03-23T09:07:44;9.60;99.90
23160;DHT22;11748;50.844;4.396;2024-03-23T09:10:10;9.90;99.90
23160;DHT22;11748;50.844;4.396;2024-03-23T09:12:36;9.90;99.90
23160;DHT22;11748;50.844;4.396;2024-03-23T09:15:02;9.80;99.90
23160;DHT22;11748;50.844;4.396;2024-03-23T09:17:29;9.80;99.90
23160;DHT22;11748;50.844;4.396;2024-03-23T09:19:54;9.90;99.90
23160;DHT22;11748;50.844;4.396;2024-03-23T09:22:20;9.80;99.90
23160;DHT22;11748;50.844;4.396;2024-03-23T09:24:46;9.80;99.90
23160;DHT22;11748;50.844;4.396;2024-03-23T09:27:11;9.90;99.90
23160;DHT22;11748;50.844;4.396;2024-03-23T09:29:37;10.10;99.90
23160;DHT22;11748;50.844;4.396;2024-03-23T09:32:03;10.20;99.90
23160;DHT22;11748;50.844;4.396;2024-03-23T09:34:29;10.00;99.90
23160;DHT22;11748;50.844;4.396;2024-03-23T09:36:55;10.20;99.90
23160;DHT22;11748;50.844;4.396;2024-03-23T09:39:21;10.60;99.90
23160;DHT22;11748;50.844;4.396;2024-03-23T09:41:47;10.50;99.90
23160;DHT22;11748;50.844;4.396;2024-03-23T09:44:12;10.40;99.90
23160;DHT22;11748;50.844;4.396;2024-03-23T09:46:38;10.30;99.90
23160;DHT22;11748;50.844;4.396;2024-03-23T09:49:07;10.30;99.90
23160;DHT22;11748;50.844;4.396;2024-03-23T09:51:36;10.30;99.90
23160;DHT22;11748;50.844;4.396;2024-03-23T09:54:02;10.50;99.90
23160;DHT22;11748;50.844;4.396;2024-03-23T09:56:27;10.60;99.90
23160;DHT22;11748;50.844;4.396;2024-03-23T09:59:01;10.50;99.90
23160;DHT22;11748;50.844;4.396;2024-03-23T10:01:26;10.80;99.90
23160;DHT22;11748;50.844;4.396;2024-03-23T10:03:52;10.60;99.90
23160;DHT22;11748;50.844;4.396;2024-03-23T10:06:21;10.50;99.90
23160;DHT22;11748;50.844;4.396;2024-03-23T10:08:47;10.30;99.90
23160;DHT22;11748;50.844;4.396;2024-03-23T10:11:15;10.20;99.90
23160;DHT22;11748;50.844;4.396;2024-03-23T10:13:42;10.60;99.90
23160;DHT22;11748;50.844;4.396;2024-03-23T10:16:09;10.80;99.90
23160;DHT22;11748;50.844;4.396;2024-03-23T10:18:39;10.70;99.90
23160;DHT22;11748;50.844;4.396;2024-03-23T10:23:34;11.20;99.90
23160;DHT22;11748;50.844;4.396;2024-03-23T10:26:23;11.00;99.90
23160;DHT22;11748;50.844;4.396;2024-03-23T10:28:57;11.10;99.90
23160;DHT22;11748;50.844;4.396;2024-03-23T10:31:26;10.90;99.90
23160;DHT22;11748;50.844;4.396;2024-03-23T10:33:52;10.80;99.90
23160;DHT22;11748;50.844;4.396;2024-03-23T10:36:22;11.10;99.90
23160;DHT22;11748;50.844;4.396;2024-03-23T10:38:52;11.10;99.90
23160;DHT22;11748;50.844;4.396;2024-03-23T10:41:18;10.80;99.90
23160;DHT22;11748;50.844;4.396;2024-03-23T10:43:48;10.70;99.90
23160;DHT22;11748;50.844;4.396;2024-03-23T10:49:48;10.80;99.90
23160;DHT22;11748;50.844;4.396;2024-03-23T10:52:15;10.70;99.90
23160;DHT22;11748;50.844;4.396;2024-03-23T10:54:41;10.80;99.90
23160;DHT22;11748;50.844;4.396;2024-03-23T10:57:14;11.20;99.90
23160;DHT22;11748;50.844;4.396;2024-03-23T10:59:44;11.50;99.90
23160;DHT22;11748;50.844;4.396;2024-03-23T11:02:19;11.10;99.90
23160;DHT22;11748;50.844;4.396;2024-03-23T11:04:45;11.20;99.90
23160;DHT22;11748;50.844;4.396;2024-03-23T11:09:45;11.90;99.90
23160;DHT22;11748;50.844;4.396;2024-03-23T11:14:43;12.40;99.90
23160;DHT22;11748;50.844;4.396;2024-03-23T11:17:10;12.50;99.90
23160;DHT22;11748;50.844;4.396;2024-03-23T11:19:38;12.30;99.90
23160;DHT22;11748;50.844;4.396;2024-03-23T11:22:07;12.40;99.90
23160;DHT22;11748;50.844;4.396;2024-03-23T11:24:34;12.10;99.90
23160;DHT22;11748;50.844;4.396;2024-03-23T11:27:01;12.30;99.90
23160;DHT22;11748;50.844;4.396;2024-03-23T11:29:29;12.40;99.90
23160;DHT22;11748;50.844;4.396;2024-03-23T11:31:55;12.40;99.90
23160;DHT22;11748;50.844;4.396;2024-03-23T11:34:22;12.00;99.90
23160;DHT22;11748;50.844;4.396;2024-03-23T11:36:48;12.00;99.90
23160;DHT22;11748;50.844;4.396;2024-03-23T11:39:19;11.90;99.90
23160;DHT22;11748;50.844;4.396;2024-03-23T11:41:51;11.70;99.90
23160;DHT22;11748;50.844;4.396;2024-03-23T11:44:25;11.60;99.90
23160;DHT22;11748;50.844;4.396;2024-03-23T11:46:52;11.50;99.90
23160;DHT22;11748;50.844;4.396;2024-03-23T11:49:27;11.40;99.90
23160;DHT22;11748;50.844;4.396;2024-03-23T11:51:55;11.30;99.90
23160;DHT22;11748;50.844;4.396;2024-03-23T11:54:23;11.20;99.90
23160;DHT22;11748;50.844;4.396;2024-03-23T11:57:07;11.20;99.90
23160;DHT22;11748;50.844;4.396;2024-03-23T11:59:40;11.10;99.90
23160;DHT22;11748;50.844;4.396;2024-03-23T12:04:32;11.30;99.90
23160;DHT22;11748;50.844;4.396;2024-03-23T12:07:29;11.60;99.90
23160;DHT22;11748;50.844;4.396;2024-03-23T12:10:05;11.50;99.90
23160;DHT22;11748;50.844;4.396;2024-03-23T12:12:34;11.40;99.90
23160;DHT22;11748;50.844;4.396;2024-03-23T12:15:07;11.00;99.90
23160;DHT22;11748;50.844;4.396;2024-03-23T12:17:34;10.90;99.90
23160;DHT22;11748;50.844;4.396;2024-03-23T12:20:03;10.90;99.90
23160;DHT22;11748;50.844;4.396;2024-03-23T12:22:29;10.70;99.90
23160;DHT22;11748;50.844;4.396;2024-03-23T12:24:55;10.50;99.90
23160;DHT22;11748;50.844;4.396;2024-03-23T12:27:21;10.10;99.90
23160;DHT22;11748;50.844;4.396;2024-03-23T12:29:48;9.90;99.90
23160;DHT22;11748;50.844;4.396;2024-03-23T12:32:14;9.90;99.90
23160;DHT22;11748;50.844;4.396;2024-03-23T12:34:41;10.00;99.90
23160;DHT22;11748;50.844;4.396;2024-03-23T12:37:08;10.30;99.90
23160;DHT22;11748;50.844;4.396;2024-03-23T12:39:34;10.40;99.90
23160;DHT22;11748;50.844;4.396;2024-03-23T12:42:02;10.50;99.90
23160;DHT22;11748;50.844;4.396;2024-03-23T12:44:30;10.70;99.90
23160;DHT22;11748;50.844;4.396;2024-03-23T12:46:56;10.90;99.90
23160;DHT22;11748;50.844;4.396;2024-03-23T12:49:21;11.20;99.90
23160;DHT22;11748;50.844;4.396;2024-03-23T12:51:55;11.50;99.90
23160;DHT22;11748;50.844;4.396;2024-03-23T12:54:21;11.80;99.90
23160;DHT22;11748;50.844;4.396;2024-03-23T12:56:47;11.90;99.90
23160;DHT22;11748;50.844;4.396;2024-03-23T12:59:13;12.00;99.90
23160;DHT22;11748;50.844;4.396;2024-03-23T13:01:39;11.90;99.90
23160;DHT22;11748;50.844;4.396;2024-03-23T13:04:05;12.20;99.90
23160;DHT22;11748;50.844;4.396;2024-03-23T13:06:31;12.20;99.90
23160;DHT22;11748;50.844;4.396;2024-03-23T13:09:01;12.20;99.90
23160;DHT22;11748;50.844;4.396;2024-03-23T13:11:27;12.30;99.90
23160;DHT22;11748;50.844;4.396;2024-03-23T13:13:53;12.40;99.90
23160;DHT22;11748;50.844;4.396;2024-03-23T13:16:19;12.40;99.90
23160;DHT22;11748;50.844;4.396;2024-03-23T13:18:45;12.80;99.90
23160;DHT22;11748;50.844;4.396;2024-03-23T13:21:10;13.00;99.90
23160;DHT22;11748;50.844;4.396;2024-03-23T13:23:36;13.50;99.90
23160;DHT22;11748;50.844;4.396;2024-03-23T13:26:03;13.50;99.90
23160;DHT22;11748;50.844;4.396;2024-03-23T13:28:29;13.40;99.90
23160;DHT22;11748;50.844;4.396;2024-03-23T13:30:56;12.80;99.90
23160;DHT22;11748;50.844;4.396;2024-03-23T13:33:23;12.40;99.90
23160;DHT22;11748;50.844;4.396;2024-03-23T13:35:52;12.10;99.90
23160;DHT22;11748;50.844;4.396;2024-03-23T13:38:19;12.10;99.90
23160;DHT22;11748;50.844;4.396;2024-03-23T13:40:55;12.20;99.90
23160;DHT22;11748;50.844;4.396;2024-03-23T13:43:25;12.00;99.90
23160;DHT22;11748;50.844;4.396;2024-03-23T13:45:55;12.10;99.90
23160;DHT22;11748;50.844;4.396;2024-03-23T13:48:22;12.30;99.90
23160;DHT22;11748;50.844;4.396;2024-03-23T13:50:57;12.30;99.90
23160;DHT22;11748;50.844;4.396;2024-03-23T13:53:23;12.20;99.90
23160;DHT22;11748;50.844;4.396;2024-03-23T13:55:50;12.50;99.90
23160;DHT22;11748;50.844;4.396;2024-03-23T13:58:16;12.50;99.90
23160;DHT22;11748;50.844;4.396;2024-03-23T14:00:42;12.50;99.90
23160;DHT22;11748;50.844;4.396;2024-03-23T14:03:11;12.50;99.90
23160;DHT22;11748;50.844;4.396;2024-03-23T14:05:38;12.60;99.90
23160;DHT22;11748;50.844;4.396;2024-03-23T14:08:08;12.60;99.90
23160;DHT22;11748;50.844;4.396;2024-03-23T14:10:34;12.40;99.90
23160;DHT22;11748;50.844;4.396;2024-03-23T14:13:02;12.30;99.90
23160;DHT22;11748;50.844;4.396;2024-03-23T14:15:27;12.20;99.90
23160;DHT22;11748;50.844;4.396;2024-03-23T14:17:53;11.80;99.90
23160;DHT22;11748;50.844;4.396;2024-03-23T14:20:21;12.30;99.90
23160;DHT22;11748;50.844;4.396;2024-03-23T14:22:47;12.30;99.90
23160;DHT22;11748;50.844;4.396;2024-03-23T14:25:13;12.50;99.90
23160;DHT22;11748;50.844;4.396;2024-03-23T14:27:39;12.30;99.90
23160;DHT22;11748;50.844;4.396;2024-03-23T14:30:05;12.10;99.90
23160;DHT22;11748;50.844;4.396;2024-03-23T14:32:31;11.80;99.90
23160;DHT22;11748;50.844;4.396;2024-03-23T14:35:05;11.80;99.90
23160;DHT22;11748;50.844;4.396;2024-03-23T14:37:37;11.90;99.90
23160;DHT22;11748;50.844;4.396;2024-03-23T14:40:04;11.90;99.90
23160;DHT22;11748;50.844;4.396;2024-03-23T14:42:30;11.80;99.90
23160;DHT22;11748;50.844;4.396;2024-03-23T14:44:58;11.60;99.90
23160;DHT22;11748;50.844;4.396;2024-03-23T14:47:24;11.60;99.90
23160;DHT22;11748;50.844;4.396;2024-03-23T14:49:49;11.70;99.90
23160;DHT22;11748;50.844;4.396;2024-03-23T14:52:18;11.90;99.90
23160;DHT22;11748;50.844;4.396;2024-03-23T14:54:45;12.20;99.90
23160;DHT22;11748;50.844;4.396;2024-03-23T14:57:12;12.30;99.90
23160;DHT22;11748;50.844;4.396;2024-03-23T14:59:38;12.10;99.90
23160;DHT22;11748;50.844;4.396;2024-03-23T15:02:04;12.20;99.90
23160;DHT22;11748;50.844;4.396;2024-03-23T15:04:30;12.20;99.90
23160;DHT22;11748;50.844;4.396;2024-03-23T15:06:55;12.40;99.90
23160;DHT22;11748;50.844;4.396;2024-03-23T15:09:21;12.30;99.90
23160;DHT22;11748;50.844;4.396;2024-03-23T15:11:47;12.20;99.90
23160;DHT22;11748;50.844;4.396;2024-03-23T15:14:12;12.20;99.90
23160;DHT22;11748;50.844;4.396;2024-03-23T15:16:38;12.20;99.90
23160;DHT22;11748;50.844;4.396;2024-03-23T15:19:04;12.10;99.90
23160;DHT22;11748;50.844;4.396;2024-03-23T15:21:32;12.20;99.90
23160;DHT22;11748;50.844;4.396;2024-03-23T15:23:58;12.50;99.90
23160;DHT22;11748;50.844;4.396;2024-03-23T15:26:23;12.40;99.90
23160;DHT22;11748;50.844;4.396;2024-03-23T15:28:49;12.20;99.90
23160;DHT22;11748;50.844;4.396;2024-03-23T15:31:25;12.30;99.90
23160;DHT22;11748;50.844;4.396;2024-03-23T15:33:51;12.20;99.90
23160;DHT22;11748;50.844;4.396;2024-03-23T15:36:18;12.20;99.90
23160;DHT22;11748;50.844;4.396;2024-03-23T15:38:45;12.50;99.90
23160;DHT22;11748;50.844;4.396;2024-03-23T15:41:10;12.20;99.90
23160;DHT22;11748;50.844;4.396;2024-03-23T15:43:36;12.10;99.90
23160;DHT22;11748;50.844;4.396;2024-03-23T15:46:04;12.20;99.90
23160;DHT22;11748;50.844;4.396;2024-03-23T15:48:31;12.00;99.90
23160;DHT22;11748;50.844;4.396;2024-03-23T15:50:59;12.20;99.90
23160;DHT22;11748;50.844;4.396;2024-03-23T15:53:27;11.80;99.90
23160;DHT22;11748;50.844;4.396;2024-03-23T15:55:57;12.10;99.90
23160;DHT22;11748;50.844;4.396;2024-03-23T15:58:24;12.10;99.90
23160;DHT22;11748;50.844;4.396;2024-03-23T16:00:57;12.00;99.90
23160;DHT22;11748;50.844;4.396;2024-03-23T16:03:23;12.20;99.90
23160;DHT22;11748;50.844;4.396;2024-03-23T16:05:56;12.10;99.90
23160;DHT22;11748;50.844;4.396;2024-03-23T16:08:22;12.00;99.90
23160;DHT22;11748;50.844;4.396;2024-03-23T16:10:49;12.10;99.90
23160;DHT22;11748;50.844;4.396;2024-03-23T16:13:15;12.20;99.90
23160;DHT22;11748;50.844;4.396;2024-03-23T16:15:41;12.20;99.90
23160;DHT22;11748;50.844;4.396;2024-03-23T16:18:07;12.30;99.90
23160;DHT22;11748;50.844;4.396;2024-03-23T16:20:33;12.50;99.90
23160;DHT22;11748;50.844;4.396;2024-03-23T16:23:02;12.40;99.90
23160;DHT22;11748;50.844;4.396;2024-03-23T16:25:28;12.10;99.90
23160;DHT22;11748;50.844;4.396;2024-03-23T16:27:54;12.00;99.90
23160;DHT22;11748;50.844;4.396;2024-03-23T16:30:20;11.80;99.90
23160;DHT22;11748;50.844;4.396;2024-03-23T16:32:49;11.80;99.90
23160;DHT22;11748;50.844;4.396;2024-03-23T16:35:15;11.80;99.90
23160;DHT22;11748;50.844;4.396;2024-03-23T16:37:41;11.80;99.90
23160;DHT22;11748;50.844;4.396;2024-03-23T16:40:07;11.60;99.90
23160;DHT22;11748;50.844;4.396;2024-03-23T16:42:37;11.50;99.90
23160;DHT22;11748;50.844;4.396;2024-03-23T16:45:02;11.40;99.90